Portada
METAR-TAF:

METAR-TAF

Aeroports :

Chambèri-Aix-les-Bains, França

latitud: 45-39N, longitud: 005-53E, altitud: 235 m

Observació

L'informe es va fer fa 35 minuts, a les 11:30 UTC
Vent 8 kt del Nord
Temperatura 26°C
Humitat 51%
Pressió 1016 hPa
Visibilitat 10 km o més
sense núvols per sota de 1500 mi sense presència de cumulonimbus.

METAR: LFLB 161130Z AUTO 01008KT CAVOK 26/15 Q1016 NOSIG

Hora: 14:05 (12:05 UTC)

Pronòstic

L'informe es va fer fa 1 hora i 5 minuts, a les 11:00 UTC
Pronòstic vàlid del 16 a les 12 UTC al 17 a les 12 UTC
Vent 10 kt del Nord
Visibilitat 10 km o més
sense núvols per sota de 1500 mi sense presència de cumulonimbus.
Evolucionant progressivament
l' 16 a les 17 UTC al 16 a les 19 UTC
Vent 2 kt amb direcció variable

TAF: LFLB 161100Z 1612/1712 36010KT CAVOK BECMG 1617/1619 VRB02KT

Observacions i pronòstics meteorològics de més de 4000 aeroports (METAR i TAF).

Les estacions disponibles són els punts grocs i vermells al mapa.

Posi el ratolí al punt desitjat per veure el nom de l'estació.

Feu clic per veure les observacions i els pronòstics meteorològics.

Per canviar el mapa: feu clic els botons verds amb una creu de color negre per apropar; al botó verd amb un guió per allunyar la imatge; o en les fletxes verdes per a mapes adjacents.


METAR-TAF: